createdAt,value
2018-08-06T00:00:40.327Z,4.03
2018-08-06T00:03:09.471Z,3.97
2018-08-06T00:05:38.384Z,4.70
2018-08-06T00:08:07.769Z,4.20
2018-08-06T00:10:36.655Z,4.23
2018-08-06T00:13:05.673Z,4.60
2018-08-06T00:15:34.615Z,4.57
2018-08-06T00:18:03.422Z,4.43
2018-08-06T00:20:32.254Z,3.93
2018-08-06T00:23:01.281Z,4.30
2018-08-06T00:25:30.232Z,4.17
2018-08-06T00:27:59.063Z,4.70
2018-08-06T00:30:28.000Z,4.47
2018-08-06T00:32:56.898Z,5.00
2018-08-06T00:35:25.817Z,4.40
2018-08-06T00:37:54.716Z,4.50
2018-08-06T00:40:23.619Z,3.93
2018-08-06T00:42:52.561Z,4.80
2018-08-06T00:45:22.140Z,4.23
2018-08-06T00:47:51.224Z,4.10
2018-08-06T00:50:20.085Z,4.60
2018-08-06T00:52:49.143Z,4.73
2018-08-06T00:55:19.217Z,4.87
2018-08-06T00:57:48.057Z,4.67
2018-08-06T01:00:18.075Z,4.40
2018-08-06T01:02:46.982Z,4.80
2018-08-06T01:05:16.432Z,5.27
2018-08-06T01:07:45.677Z,4.63
2018-08-06T01:10:15.860Z,4.90
2018-08-06T01:12:44.762Z,4.80
2018-08-06T01:15:15.827Z,4.97
2018-08-06T01:17:44.738Z,4.63
2018-08-06T01:20:14.251Z,4.80
2018-08-06T01:22:43.987Z,4.83
2018-08-06T01:25:13.583Z,5.00
2018-08-06T01:27:42.536Z,4.53
2018-08-06T01:30:13.167Z,4.70
2018-08-06T01:32:42.109Z,4.83
2018-08-06T01:35:11.708Z,4.93
2018-08-06T01:37:40.716Z,4.70
2018-08-06T01:40:13.210Z,5.10
2018-08-06T01:42:42.504Z,5.20
2018-08-06T01:45:13.133Z,4.57
2018-08-06T01:47:42.025Z,4.70
2018-08-06T01:50:11.965Z,4.90
2018-08-06T01:52:41.354Z,4.83
2018-08-06T01:55:10.241Z,4.60
2018-08-06T01:57:39.128Z,5.00
2018-08-06T02:00:11.031Z,5.00
2018-08-06T02:02:39.886Z,4.67
2018-08-06T02:05:09.331Z,5.03
2018-08-06T02:07:38.608Z,5.00
2018-08-06T02:10:10.525Z,5.07
2018-08-06T02:12:39.889Z,5.10
2018-08-06T02:15:10.136Z,4.70
2018-08-06T02:17:39.415Z,5.00
2018-08-06T02:20:09.775Z,5.03
2018-08-06T02:22:38.712Z,5.17
2018-08-06T02:25:09.013Z,5.33
2018-08-06T02:27:37.896Z,4.80
2018-08-06T02:30:09.351Z,5.10
2018-08-06T02:32:38.352Z,5.27
2018-08-06T02:35:08.393Z,4.80
2018-08-06T02:37:37.289Z,5.00
2018-08-06T02:40:07.739Z,5.20
2018-08-06T02:42:36.635Z,5.07
2018-08-06T02:45:06.853Z,4.63
2018-08-06T02:47:35.694Z,4.90
2018-08-06T02:50:04.905Z,5.43
2018-08-06T02:52:33.838Z,5.23
2018-08-06T02:55:02.898Z,4.63
2018-08-06T02:57:31.707Z,4.73
2018-08-06T03:00:00.641Z,4.73
2018-08-06T03:02:29.585Z,5.57
2018-08-06T03:04:58.755Z,6.63
2018-08-06T03:07:27.624Z,11.30
2018-08-06T03:09:56.534Z,5.83
2018-08-06T03:12:25.354Z,5.17
2018-08-06T03:14:54.275Z,5.33
2018-08-06T03:17:23.211Z,5.10
2018-08-06T03:19:52.024Z,5.13
2018-08-06T03:22:20.872Z,4.73
2018-08-06T03:24:49.752Z,5.17
2018-08-06T03:27:18.688Z,5.43
2018-08-06T03:29:47.580Z,5.23
2018-08-06T03:32:16.559Z,5.47
2018-08-06T03:34:45.475Z,5.13
2018-08-06T03:37:14.315Z,4.70
2018-08-06T03:39:43.219Z,5.40
2018-08-06T03:42:12.070Z,5.53
2018-08-06T03:44:40.888Z,5.53
2018-08-06T03:47:09.782Z,5.90
2018-08-06T03:49:38.616Z,6.00
2018-08-06T03:52:07.960Z,5.53
2018-08-06T03:54:36.843Z,5.60
2018-08-06T03:57:05.628Z,5.53
2018-08-06T03:59:34.459Z,5.40
2018-08-06T04:02:03.339Z,5.80
2018-08-06T04:04:32.175Z,5.23
2018-08-06T04:07:00.998Z,6.07
2018-08-06T04:09:29.827Z,6.10
2018-08-06T04:11:58.730Z,6.20
2018-08-06T04:14:27.725Z,5.70
2018-08-06T04:16:56.704Z,6.17
2018-08-06T04:19:25.499Z,6.50
2018-08-06T04:21:54.389Z,6.63
2018-08-06T04:24:23.223Z,6.40
2018-08-06T04:26:52.068Z,6.33
2018-08-06T04:29:20.947Z,7.27
2018-08-06T04:31:49.863Z,6.67
2018-08-06T04:34:18.718Z,6.30
2018-08-06T04:36:47.564Z,6.50
2018-08-06T04:39:16.467Z,6.77
2018-08-06T04:41:45.387Z,7.47
2018-08-06T04:44:14.189Z,6.83
2018-08-06T04:46:43.098Z,6.40
2018-08-06T04:49:11.895Z,7.13
2018-08-06T04:51:40.780Z,7.17
2018-08-06T04:54:09.703Z,7.43
2018-08-06T04:56:38.552Z,7.30
2018-08-06T04:59:07.356Z,7.03
2018-08-06T05:01:36.298Z,8.07
2018-08-06T05:04:05.168Z,7.90
2018-08-06T05:06:34.087Z,7.63
2018-08-06T05:09:03.118Z,7.43
2018-08-06T05:11:31.947Z,7.60
2018-08-06T05:14:00.741Z,7.83
2018-08-06T05:16:29.592Z,7.67
2018-08-06T05:18:58.433Z,7.53
2018-08-06T05:21:27.232Z,7.40
2018-08-06T05:23:57.623Z,7.70
2018-08-06T05:26:27.711Z,6.37
2018-08-06T05:28:56.591Z,6.70
2018-08-06T05:31:26.575Z,6.90
2018-08-06T05:33:56.443Z,6.93
2018-08-06T05:36:25.481Z,7.23
2018-08-06T05:38:55.693Z,6.30
2018-08-06T05:41:26.393Z,7.10
2018-08-06T05:43:56.262Z,6.87
2018-08-06T05:46:26.143Z,6.43
2018-08-06T05:48:55.214Z,6.70
2018-08-06T05:51:24.211Z,6.57
2018-08-06T05:53:53.101Z,6.60
2018-08-06T05:56:22.020Z,6.90
2018-08-06T05:58:51.007Z,6.50
2018-08-06T06:01:19.981Z,6.30
2018-08-06T06:03:48.853Z,6.47
2018-08-06T06:06:17.900Z,6.77
2018-08-06T06:08:46.837Z,7.03
2018-08-06T06:11:15.685Z,6.33
2018-08-06T06:13:44.626Z,6.43
2018-08-06T06:16:13.652Z,6.73
2018-08-06T06:18:42.636Z,6.77
2018-08-06T06:21:11.552Z,6.93
2018-08-06T06:23:40.565Z,6.83
2018-08-06T06:26:09.515Z,7.00
2018-08-06T06:28:38.535Z,8.03
2018-08-06T06:31:07.406Z,6.80
2018-08-06T06:33:36.295Z,7.30
2018-08-06T06:36:05.481Z,6.80
2018-08-06T06:38:34.317Z,7.17
2018-08-06T06:41:03.241Z,6.37
2018-08-06T06:43:32.257Z,6.90
2018-08-06T06:46:01.214Z,6.70
2018-08-06T06:48:30.117Z,6.63
2018-08-06T06:50:59.099Z,6.43
2018-08-06T06:53:28.073Z,6.47
2018-08-06T06:55:57.143Z,7.00
2018-08-06T06:58:26.299Z,6.37
2018-08-06T07:00:55.214Z,6.27
2018-08-06T07:03:24.242Z,6.00
2018-08-06T07:05:53.321Z,5.90
2018-08-06T07:08:22.223Z,6.47
2018-08-06T07:10:51.143Z,6.27
2018-08-06T07:13:21.065Z,5.83
2018-08-06T07:15:49.984Z,6.30
2018-08-06T07:18:18.962Z,6.23
2018-08-06T07:20:48.090Z,6.40
2018-08-06T07:23:17.192Z,5.40
2018-08-06T07:25:46.248Z,5.33
2018-08-06T07:28:15.285Z,6.13
2018-08-06T07:30:44.310Z,5.33
2018-08-06T07:33:13.160Z,5.73
2018-08-06T07:35:42.019Z,5.70
2018-08-06T07:38:11.093Z,5.70
2018-08-06T07:40:40.020Z,5.30
2018-08-06T07:43:08.983Z,6.07
2018-08-06T07:45:37.898Z,5.40
2018-08-06T07:48:06.878Z,5.63
2018-08-06T07:50:35.800Z,5.83
2018-08-06T07:53:04.866Z,5.50
2018-08-06T07:55:33.819Z,5.37
2018-08-06T07:58:02.746Z,5.13
2018-08-06T08:00:31.686Z,4.80
2018-08-06T08:03:00.655Z,5.40
2018-08-06T08:05:29.656Z,5.30
2018-08-06T08:07:58.598Z,5.30
2018-08-06T08:10:27.602Z,5.60
2018-08-06T08:12:56.496Z,5.27
2018-08-06T08:15:26.828Z,6.00
2018-08-06T08:17:57.258Z,5.17
2018-08-06T08:20:26.626Z,5.43
2018-08-06T08:22:55.599Z,5.50
2018-08-06T08:25:24.603Z,5.10
2018-08-06T08:27:53.480Z,5.20
2018-08-06T08:30:22.568Z,5.53
2018-08-06T08:32:51.509Z,8.03
2018-08-06T08:35:20.623Z,5.50
2018-08-06T08:37:49.670Z,5.23
2018-08-06T08:40:19.860Z,4.83
2018-08-06T08:42:48.864Z,5.77
2018-08-06T08:45:18.811Z,6.07
2018-08-06T08:47:47.980Z,5.10
2018-08-06T08:50:19.546Z,5.33
2018-08-06T08:52:48.564Z,5.27
2018-08-06T08:55:18.906Z,5.20
2018-08-06T08:57:47.998Z,5.20
2018-08-06T09:00:18.107Z,4.90
2018-08-06T09:02:48.253Z,5.30
2018-08-06T09:05:17.700Z,5.40
2018-08-06T09:07:47.038Z,5.43
2018-08-06T09:10:17.613Z,5.30
2018-08-06T09:12:46.863Z,5.27
2018-08-06T09:15:19.284Z,4.90
2018-08-06T09:17:48.196Z,5.10
2018-08-06T09:20:17.145Z,4.87
2018-08-06T09:22:46.704Z,5.00
2018-08-06T09:25:16.034Z,5.00
2018-08-06T09:27:46.263Z,5.73
2018-08-06T09:30:18.275Z,5.40
2018-08-06T09:32:48.516Z,5.33
2018-08-06T09:35:18.281Z,5.27
2018-08-06T09:37:47.427Z,5.00
2018-08-06T09:40:17.802Z,4.80
2018-08-06T09:42:47.371Z,5.23
2018-08-06T09:45:17.497Z,5.33
2018-08-06T09:47:47.771Z,4.80
2018-08-06T09:50:17.684Z,4.90
2018-08-06T09:52:47.796Z,4.60
2018-08-06T09:55:20.587Z,4.30
2018-08-06T09:57:50.273Z,4.47
2018-08-06T10:00:25.152Z,4.60
2018-08-06T10:02:55.180Z,4.47
2018-08-06T10:05:25.078Z,4.37
2018-08-06T10:07:54.350Z,4.60
2018-08-06T10:10:23.483Z,4.10
2018-08-06T10:12:52.661Z,4.10
2018-08-06T10:15:23.095Z,4.27
2018-08-06T10:17:54.252Z,4.13
2018-08-06T10:20:24.470Z,4.20
2018-08-06T10:22:53.445Z,4.10
2018-08-06T10:25:22.464Z,3.93
2018-08-06T10:27:51.402Z,4.67
2018-08-06T10:30:21.432Z,4.50
2018-08-06T10:32:50.535Z,4.20
2018-08-06T10:35:20.131Z,3.97
2018-08-06T10:37:49.209Z,4.27
2018-08-06T10:40:22.474Z,4.17
2018-08-06T10:42:51.442Z,3.53
2018-08-06T10:45:21.544Z,4.07
2018-08-06T10:47:50.968Z,3.93
2018-08-06T10:50:20.006Z,3.90
2018-08-06T10:52:48.904Z,3.70
2018-08-06T10:55:17.960Z,4.10
2018-08-06T10:57:47.254Z,4.07
2018-08-06T11:00:20.292Z,4.10
2018-08-06T11:02:49.472Z,4.27
2018-08-06T11:05:18.958Z,4.17
2018-08-06T11:07:48.858Z,3.67
2018-08-06T11:10:19.214Z,3.90
2018-08-06T11:12:48.211Z,3.80
2018-08-06T11:15:22.531Z,3.93
2018-08-06T11:17:51.554Z,4.10
2018-08-06T11:20:21.163Z,3.77
2018-08-06T11:22:50.103Z,3.73
2018-08-06T11:25:20.680Z,3.73
2018-08-06T11:27:49.792Z,3.60
2018-08-06T11:30:20.375Z,3.60
2018-08-06T11:32:49.903Z,3.77
2018-08-06T11:35:18.928Z,3.70
2018-08-06T11:37:47.962Z,3.60
2018-08-06T11:40:17.783Z,3.43
2018-08-06T11:42:47.260Z,3.73
2018-08-06T11:45:17.581Z,3.70
2018-08-06T11:47:46.485Z,3.60
2018-08-06T11:50:15.387Z,3.60
2018-08-06T11:52:44.309Z,3.57
2018-08-06T11:55:13.191Z,3.50
2018-08-06T11:57:42.105Z,3.60
2018-08-06T12:00:19.913Z,3.40
2018-08-06T12:02:48.817Z,3.90
2018-08-06T12:05:17.794Z,3.50
2018-08-06T12:07:46.740Z,3.83
2018-08-06T12:10:16.928Z,3.60
2018-08-06T12:12:46.635Z,3.60
2018-08-06T12:15:15.655Z,3.73
2018-08-06T12:17:44.840Z,3.60
2018-08-06T12:20:15.522Z,3.37
2018-08-06T12:22:45.790Z,3.87
2018-08-06T12:25:15.508Z,3.47
2018-08-06T12:27:44.977Z,3.83
2018-08-06T12:30:15.785Z,4.00
2018-08-06T12:32:45.392Z,3.40
2018-08-06T12:35:14.603Z,3.92
2018-08-06T12:37:43.727Z,4.17
2018-08-06T12:40:14.761Z,4.03
2018-08-06T12:42:43.720Z,3.85
2018-08-06T12:45:13.556Z,3.20
2018-08-06T12:47:42.828Z,3.90
2018-08-06T12:50:12.853Z,3.90
2018-08-06T12:52:42.402Z,3.40
2018-08-06T12:55:12.696Z,3.90
2018-08-06T12:57:42.202Z,3.47
2018-08-06T13:00:24.244Z,3.62
2018-08-06T13:02:53.790Z,3.85
2018-08-06T13:05:23.394Z,3.85
2018-08-06T13:07:52.387Z,4.00
2018-08-06T13:10:21.268Z,4.00
2018-08-06T13:12:50.188Z,3.85
2018-08-06T13:15:19.160Z,3.83
2018-08-06T13:17:48.039Z,3.65
2018-08-06T13:20:16.887Z,3.92
2018-08-06T13:22:45.866Z,3.60
2018-08-06T13:25:14.685Z,3.90
2018-08-06T13:27:43.537Z,3.33
2018-08-06T13:30:14.616Z,3.92
2018-08-06T13:32:44.299Z,3.45
2018-08-06T13:35:14.139Z,3.92
2018-08-06T13:37:43.004Z,3.77
2018-08-06T13:40:12.168Z,3.77
2018-08-06T13:42:41.118Z,3.80
2018-08-06T13:45:11.971Z,3.58
2018-08-06T13:47:40.851Z,4.33
2018-08-06T13:50:10.480Z,3.77
2018-08-06T13:52:39.382Z,3.70
2018-08-06T13:55:09.806Z,3.70
2018-08-06T13:57:38.919Z,4.22
2018-08-06T14:00:17.173Z,3.90
2018-08-06T14:02:46.361Z,3.92
2018-08-06T14:05:16.096Z,4.17
2018-08-06T14:07:46.851Z,3.85
2018-08-06T14:10:16.154Z,3.90
2018-08-06T14:12:45.001Z,3.60
2018-08-06T14:15:14.168Z,3.87
2018-08-06T14:17:43.685Z,4.17
2018-08-06T14:20:14.890Z,3.55
2018-08-06T14:22:43.735Z,3.70
2018-08-06T14:25:13.744Z,4.10
2018-08-06T14:27:42.771Z,3.70
2018-08-06T14:30:13.837Z,4.17
2018-08-06T14:32:43.254Z,4.20
2018-08-06T14:35:12.453Z,4.20
2018-08-06T14:37:41.391Z,4.10
2018-08-06T14:40:13.188Z,4.15
2018-08-06T14:42:42.116Z,3.75
2018-08-06T14:45:11.325Z,4.00
2018-08-06T14:47:40.251Z,4.17
2018-08-06T14:50:10.533Z,4.15
2018-08-06T14:52:39.455Z,4.42
2018-08-06T14:55:08.433Z,3.98
2018-08-06T14:57:38.531Z,4.00
2018-08-06T15:00:17.290Z,4.37
2018-08-06T15:02:46.676Z,4.00
2018-08-06T15:05:15.588Z,4.17
2018-08-06T15:07:44.950Z,4.50
2018-08-06T15:10:14.561Z,4.40
2018-08-06T15:12:43.633Z,4.20
2018-08-06T15:15:14.298Z,3.50
2018-08-06T15:17:43.895Z,4.10
2018-08-06T15:20:14.488Z,4.03
2018-08-06T15:22:43.443Z,3.83
2018-08-06T15:25:19.307Z,4.08
2018-08-06T15:27:48.275Z,4.28
2018-08-06T15:30:17.163Z,4.05
2018-08-06T15:32:46.203Z,4.13
2018-08-06T15:35:15.275Z,4.00
2018-08-06T15:37:44.955Z,4.33
2018-08-06T15:40:17.910Z,4.22
2018-08-06T15:42:46.863Z,4.20
2018-08-06T15:45:15.958Z,4.17
2018-08-06T15:47:45.797Z,4.10
2018-08-06T15:50:16.849Z,3.98
2018-08-06T15:52:45.809Z,4.12
2018-08-06T15:55:14.882Z,4.22
2018-08-06T15:57:43.890Z,3.87
2018-08-06T16:00:15.257Z,4.08
2018-08-06T16:02:44.532Z,3.77
2018-08-06T16:05:13.669Z,3.85
2018-08-06T16:07:42.722Z,3.95
2018-08-06T16:10:12.451Z,4.67
2018-08-06T16:12:41.690Z,4.30
2018-08-06T16:15:12.420Z,4.55
2018-08-06T16:17:42.095Z,4.00
2018-08-06T16:20:18.403Z,4.42
2018-08-06T16:22:47.351Z,4.05
2018-08-06T16:25:16.396Z,4.28
2018-08-06T16:27:45.359Z,4.50
2018-08-06T16:30:16.674Z,4.70
2018-08-06T16:32:46.553Z,5.08
2018-08-06T16:35:16.345Z,5.60
2018-08-06T16:37:45.308Z,6.85
2018-08-06T16:40:14.669Z,5.78
2018-08-06T16:42:43.816Z,5.60
2018-08-06T16:45:12.715Z,5.17
2018-08-06T16:47:41.691Z,5.63
2018-08-06T16:50:12.596Z,5.67
2018-08-06T16:52:41.716Z,5.27
2018-08-06T16:55:11.821Z,5.00
2018-08-06T16:57:41.002Z,5.40
2018-08-06T17:00:17.407Z,5.60
2018-08-06T17:02:46.469Z,4.80
2018-08-06T17:05:15.502Z,4.45
2018-08-06T17:07:46.702Z,4.28
2018-08-06T17:10:17.947Z,4.10
2018-08-06T17:12:48.096Z,4.17
2018-08-06T17:15:18.287Z,3.60
2018-08-06T17:17:47.871Z,4.20
2018-08-06T17:20:18.450Z,3.63
2018-08-06T17:22:48.453Z,3.90
2018-08-06T17:25:17.524Z,4.37
2018-08-06T17:27:46.435Z,4.33
2018-08-06T17:30:16.145Z,3.77
2018-08-06T17:32:45.113Z,4.80
2018-08-06T17:35:14.586Z,4.80
2018-08-06T17:37:43.493Z,4.93
2018-08-06T17:40:17.319Z,4.60
2018-08-06T17:42:46.159Z,3.80
2018-08-06T17:45:17.013Z,4.50
2018-08-06T17:47:45.984Z,4.73
2018-08-06T17:50:19.833Z,4.77
2018-08-06T17:52:49.878Z,4.60
2018-08-06T17:55:19.765Z,4.53
2018-08-06T17:57:48.970Z,3.97
2018-08-06T18:00:18.474Z,4.27
2018-08-06T18:02:47.539Z,4.50
2018-08-06T18:05:17.172Z,4.47
2018-08-06T18:07:46.088Z,4.60
2018-08-06T18:10:16.303Z,4.47
2018-08-06T18:12:45.924Z,4.47
2018-08-06T18:15:14.972Z,4.50
2018-08-06T18:17:43.851Z,4.60
2018-08-06T18:20:14.919Z,3.97
2018-08-06T18:22:43.872Z,4.20
2018-08-06T18:25:15.518Z,4.60
2018-08-06T18:27:45.542Z,4.93
2018-08-06T18:30:16.247Z,5.23
2018-08-06T18:32:45.222Z,4.67
2018-08-06T18:35:15.699Z,5.03
2018-08-06T18:37:44.616Z,5.87
2018-08-06T18:40:14.344Z,4.50
2018-08-06T18:42:43.326Z,5.00
2018-08-06T18:45:14.569Z,4.50
2018-08-06T18:47:45.933Z,4.17
2018-08-06T18:50:15.690Z,4.23
2018-08-06T18:52:45.515Z,4.50
2018-08-06T18:55:15.373Z,4.20
2018-08-06T18:57:44.709Z,4.13
2018-08-06T19:00:19.755Z,4.03
2018-08-06T19:02:48.834Z,4.70
2018-08-06T19:05:17.823Z,3.97
2018-08-06T19:10:25.559Z,4.03
2018-08-06T19:12:59.709Z,3.87
2018-08-06T19:15:28.686Z,3.77
2018-08-06T19:18:02.680Z,4.17
2018-08-06T19:20:31.692Z,3.93
2018-08-06T19:23:00.674Z,4.00
2018-08-06T19:25:31.001Z,3.70
2018-08-06T19:27:59.966Z,3.97
2018-08-06T19:30:33.901Z,3.80
2018-08-06T19:33:03.108Z,3.90
2018-08-06T19:35:32.098Z,4.17
2018-08-06T19:38:00.989Z,3.80
2018-08-06T19:40:30.045Z,4.10
2018-08-06T19:43:04.016Z,3.77
2018-08-06T19:45:33.079Z,3.93
2018-08-06T19:48:01.905Z,3.70
2018-08-06T19:50:36.008Z,3.90
2018-08-06T19:53:05.130Z,4.10
2018-08-06T19:55:39.312Z,3.87
2018-08-06T19:58:08.245Z,4.07
2018-08-06T20:00:37.195Z,3.93
2018-08-06T20:03:06.344Z,3.83
2018-08-06T20:05:35.341Z,3.70
2018-08-06T20:08:04.370Z,3.80
2018-08-06T20:10:33.441Z,3.57
2018-08-06T20:13:02.431Z,3.60
2018-08-06T20:15:31.329Z,3.20
2018-08-06T20:18:00.414Z,3.90
2018-08-06T20:20:29.333Z,3.77
2018-08-06T20:22:58.226Z,4.13
2018-08-06T20:25:27.154Z,3.83
2018-08-06T20:27:56.177Z,3.77
2018-08-06T20:30:25.040Z,4.10
2018-08-06T20:32:54.612Z,4.20
2018-08-06T20:35:23.657Z,3.60
2018-08-06T20:37:52.676Z,3.53
2018-08-06T20:40:21.623Z,3.90
2018-08-06T20:42:50.462Z,4.03
2018-08-06T20:45:20.626Z,4.10
2018-08-06T20:47:49.714Z,3.60
2018-08-06T20:50:20.416Z,4.20
2018-08-06T20:52:50.207Z,3.70
2018-08-06T20:55:19.170Z,3.47
2018-08-06T20:57:48.456Z,4.40
2018-08-06T21:00:19.670Z,3.80
2018-08-06T21:02:49.372Z,3.90
2018-08-06T21:05:18.374Z,3.90
2018-08-06T21:07:47.451Z,4.00
2018-08-06T21:10:17.305Z,4.03
2018-08-06T21:12:46.604Z,4.03
2018-08-06T21:15:16.065Z,4.60
2018-08-06T21:17:45.188Z,4.37
2018-08-06T21:20:15.994Z,3.90
2018-08-06T21:22:46.907Z,4.10
2018-08-06T21:25:16.171Z,4.13
2018-08-06T21:27:46.156Z,4.03
2018-08-06T21:30:17.155Z,4.20
2018-08-06T21:32:53.228Z,4.10
2018-08-06T21:35:23.269Z,4.63
2018-08-06T21:37:53.083Z,4.40
2018-08-06T21:40:22.916Z,4.20
2018-08-06T21:42:52.198Z,4.47
2018-08-06T21:45:21.303Z,3.93
2018-08-06T21:47:50.533Z,4.50
2018-08-06T21:50:19.421Z,5.00
2018-08-06T21:52:48.241Z,4.70
2018-08-06T21:55:17.215Z,4.23
2018-08-06T21:57:46.112Z,4.37
2018-08-06T22:00:35.646Z,4.40
2018-08-06T22:03:06.138Z,4.80
2018-08-06T22:05:35.043Z,4.43
2018-08-06T22:08:04.086Z,4.53
2018-08-06T22:10:33.040Z,4.67
2018-08-06T22:13:01.883Z,4.33
2018-08-06T22:15:30.831Z,4.60
2018-08-06T22:17:59.734Z,4.60
2018-08-06T22:20:28.678Z,4.57
2018-08-06T22:22:57.628Z,4.40
2018-08-06T22:25:26.608Z,4.70
2018-08-06T22:27:55.533Z,4.40
2018-08-06T22:30:24.500Z,4.00
2018-08-06T22:32:53.385Z,4.33
2018-08-06T22:35:22.246Z,4.40
2018-08-06T22:37:51.133Z,4.57
2018-08-06T22:40:20.012Z,4.80
2018-08-06T22:42:48.903Z,4.30
2018-08-06T22:45:17.868Z,3.73
2018-08-06T22:47:46.788Z,3.90
2018-08-06T22:50:15.633Z,4.17
2018-08-06T22:52:44.592Z,4.17
2018-08-06T22:55:13.765Z,4.53
2018-08-06T22:57:43.188Z,4.37
2018-08-06T23:00:14.316Z,4.10
2018-08-06T23:02:43.642Z,4.27
2018-08-06T23:05:13.769Z,3.77
2018-08-06T23:07:42.652Z,3.87
2018-08-06T23:10:14.539Z,4.00
2018-08-06T23:12:43.542Z,4.10
2018-08-06T23:15:14.984Z,3.77
2018-08-06T23:17:44.520Z,4.40
2018-08-06T23:20:13.485Z,4.80
2018-08-06T23:22:43.043Z,4.50
2018-08-06T23:25:12.026Z,3.53
2018-08-06T23:27:41.395Z,3.83
2018-08-06T23:30:12.927Z,3.87
2018-08-06T23:32:42.198Z,4.20
2018-08-06T23:35:12.399Z,4.20
2018-08-06T23:37:42.500Z,4.77
2018-08-06T23:40:12.354Z,4.20
2018-08-06T23:42:41.815Z,4.13
2018-08-06T23:45:11.860Z,4.07
2018-08-06T23:47:41.206Z,4.10
2018-08-06T23:50:11.868Z,4.67
2018-08-06T23:52:42.203Z,4.00
2018-08-06T23:55:12.483Z,4.00
2018-08-06T23:57:41.420Z,4.40
